Time;durP1;ratioP1;P1;durP2;ratioP2;P2;SDS_P1;SDS_P2;PMS_P1;PMS_P2;Temp;Humidity;BMP_temperature;BMP_pressure;BME280_temperature;BME280_humidity;BME280_pressure;Samples;Min_cycle;Max_cycle;Signal;HPM_P1;HPM_P2
2023/05/07 00:02:07;;;;;;;;;;;;;;;15.75;78.23;100014.88;5050016;28;19962;-86
2023/05/07 00:04:36;;;;;;;;;;;;;;;16.01;77.18;100018.50;5048416;28;20386;-86
2023/05/07 00:07:02;;;;;;;;;;;;;;;15.96;77.59;100017.78;5049876;28;20398;-86
2023/05/07 00:09:27;;;;;;;;;;;;;;;15.68;78.37;100013.31;5048911;28;19920;-85
2023/05/07 00:11:52;;;;;;;;;;;;;;;15.59;78.89;100010.94;5048743;28;19909;-87
2023/05/07 00:14:18;;;;;;;;;;;;;;;15.64;79.50;100016.09;5048436;28;19994;-86
2023/05/07 00:16:43;;;;;;;;;;;;;;;15.66;79.96;100008.94;5052513;28;20305;-86
2023/05/07 00:19:08;;;;;;;;;;;;;;;15.65;79.39;100012.53;5051851;28;19973;-86
2023/05/07 00:21:34;;;;;;;;;;;;;;;15.70;79.01;100011.47;5051704;28;19913;-86
2023/05/07 00:23:59;;;;;;;;;;;;;;;15.62;78.86;100007.31;5052923;28;19913;-86
2023/05/07 00:26:25;;;;;;;;;;;;;;;15.50;78.84;100004.09;5051899;28;20346;-87
2023/05/07 00:28:50;;;;;;;;;;;;;;;15.47;79.25;100001.53;5051965;28;19913;-86
2023/05/07 00:31:15;;;;;;;;;;;;;;;15.42;78.97;100007.91;5052962;28;19916;-86
2023/05/07 00:33:40;;;;;;;;;;;;;;;15.34;78.85;100008.16;5053520;28;20043;-88
2023/05/07 00:36:06;;;;;;;;;;;;;;;15.48;78.18;100005.06;5051859;28;19913;-86
2023/05/07 00:38:31;;;;;;;;;;;;;;;15.43;79.09;100009.66;5053299;28;19913;-87
2023/05/07 00:40:57;;;;;;;;;;;;;;;15.37;78.70;100000.09;5051626;28;19913;-86
2023/05/07 00:43:22;;;;;;;;;;;;;;;15.35;79.16;100008.09;5051990;28;19913;-86
2023/05/07 00:45:48;;;;;;;;;;;;;;;15.32;78.53;100009.97;5052676;28;19967;-86
2023/05/07 00:48:13;;;;;;;;;;;;;;;15.33;78.83;100009.91;5052769;28;19977;-86
2023/05/07 00:50:38;;;;;;;;;;;;;;;15.19;79.26;100012.13;5052681;28;19952;-86
2023/05/07 00:53:04;;;;;;;;;;;;;;;15.26;78.43;100018.13;5052981;28;19998;-86
2023/05/07 00:55:29;;;;;;;;;;;;;;;15.20;78.69;100003.25;5051753;28;20336;-86
2023/05/07 00:57:55;;;;;;;;;;;;;;;14.93;78.60;100005.75;5052720;28;19912;-86
2023/05/07 01:00:20;;;;;;;;;;;;;;;14.93;78.93;100007.53;5051179;28;20298;-87
2023/05/07 01:02:46;;;;;;;;;;;;;;;14.90;79.31;99997.88;5051010;28;19913;-86
2023/05/07 01:05:13;;;;;;;;;;;;;;;14.86;79.61;99996.22;5051056;28;20378;-87
2023/05/07 01:07:39;;;;;;;;;;;;;;;14.88;78.83;99998.84;5051300;28;19912;-86
2023/05/07 01:10:06;;;;;;;;;;;;;;;14.90;78.87;100004.97;5052814;28;19982;-87
2023/05/07 01:12:32;;;;;;;;;;;;;;;14.91;78.58;100007.59;5051375;28;19912;-86
2023/05/07 01:14:57;;;;;;;;;;;;;;;15.00;78.06;100002.00;5052459;28;19919;-86
2023/05/07 01:17:23;;;;;;;;;;;;;;;15.00;77.78;100006.47;5052431;28;20380;-86
2023/05/07 01:19:48;;;;;;;;;;;;;;;14.95;78.32;100003.06;5051818;28;19966;-86
2023/05/07 01:22:15;;;;;;;;;;;;;;;14.94;78.06;100001.31;5051928;28;19920;-86
2023/05/07 01:24:41;;;;;;;;;;;;;;;14.95;77.69;100006.59;5052302;28;19996;-85
2023/05/07 01:27:06;;;;;;;;;;;;;;;14.98;77.61;100010.94;5052222;28;20003;-85
2023/05/07 01:29:32;;;;;;;;;;;;;;;14.73;77.99;100016.06;5050405;28;19935;-86
2023/05/07 01:31:58;;;;;;;;;;;;;;;14.59;78.65;100014.59;5041486;28;19952;-85
2023/05/07 01:34:26;;;;;;;;;;;;;;;14.51;79.47;100004.19;5031585;28;19921;-85
2023/05/07 01:36:52;;;;;;;;;;;;;;;14.74;79.01;100008.06;5030718;28;19917;-86
2023/05/07 01:39:17;;;;;;;;;;;;;;;14.68;79.59;100005.56;5030958;28;19913;-85
2023/05/07 01:41:43;;;;;;;;;;;;;;;14.59;79.72;99995.16;5031666;28;20387;-86
2023/05/07 01:44:10;;;;;;;;;;;;;;;14.56;80.11;99992.59;5032014;28;20350;-86
2023/05/07 01:46:35;;;;;;;;;;;;;;;14.49;80.12;100003.38;5031608;28;19920;-85
2023/05/07 01:49:00;;;;;;;;;;;;;;;14.38;80.12;100002.78;5031611;28;19913;-86
2023/05/07 01:51:26;;;;;;;;;;;;;;;14.45;79.74;100001.69;5031362;28;19912;-85
2023/05/07 01:53:53;;;;;;;;;;;;;;;14.40;79.67;99992.97;5031855;28;19913;-85
2023/05/07 01:56:19;;;;;;;;;;;;;;;14.23;79.53;99995.22;5031458;28;19932;-85
2023/05/07 01:58:46;;;;;;;;;;;;;;;14.37;79.10;99994.84;5031713;28;19913;-85
2023/05/07 02:01:12;;;;;;;;;;;;;;;14.38;79.33;99999.22;5031416;28;19975;-85
2023/05/07 02:03:37;;;;;;;;;;;;;;;14.24;78.98;99996.94;5031309;28;19913;-86
2023/05/07 02:06:03;;;;;;;;;;;;;;;14.11;79.41;99983.13;5030231;28;20011;-85
2023/05/07 02:08:28;;;;;;;;;;;;;;;14.06;79.79;99987.66;5031226;28;19940;-86
2023/05/07 02:10:53;;;;;;;;;;;;;;;14.06;78.94;99991.19;5031806;28;19920;-86
2023/05/07 02:13:19;;;;;;;;;;;;;;;13.99;79.51;99984.28;5029745;28;19920;-86
2023/05/07 02:15:49;;;;;;;;;;;;;;;14.11;79.04;99978.66;5031486;28;20033;-86
2023/05/07 02:18:14;;;;;;;;;;;;;;;14.08;79.00;99981.41;5031033;28;19913;-86
2023/05/07 02:20:39;;;;;;;;;;;;;;;14.19;78.28;99981.13;5030053;28;19913;-86
2023/05/07 02:23:05;;;;;;;;;;;;;;;14.12;77.68;99988.38;5030975;28;20298;-87
2023/05/07 02:25:31;;;;;;;;;;;;;;;14.20;77.95;99990.84;5031377;28;20343;-86
2023/05/07 02:27:57;;;;;;;;;;;;;;;14.28;77.83;99986.19;5029657;28;20394;-86
2023/05/07 02:30:22;;;;;;;;;;;;;;;14.35;77.06;99992.25;5031541;28;19913;-86
2023/05/07 02:32:48;;;;;;;;;;;;;;;14.31;77.42;100001.19;5030632;28;19928;-87
2023/05/07 02:35:13;;;;;;;;;;;;;;;14.23;77.40;99993.41;5031217;28;20386;-85
2023/05/07 02:37:38;;;;;;;;;;;;;;;14.14;77.56;99991.84;5029220;28;20370;-86
2023/05/07 02:40:04;;;;;;;;;;;;;;;13.97;78.66;99992.28;5030544;28;20383;-86
2023/05/07 02:42:30;;;;;;;;;;;;;;;13.96;78.94;99998.50;5030927;28;19913;-86
2023/05/07 02:44:55;;;;;;;;;;;;;;;13.87;78.91;99992.53;5030675;28;19924;-86
2023/05/07 02:47:20;;;;;;;;;;;;;;;13.99;78.51;99992.22;5029056;28;19913;-86
2023/05/07 02:49:45;;;;;;;;;;;;;;;13.97;78.93;99991.41;5031183;28;20070;-86
2023/05/07 02:52:11;;;;;;;;;;;;;;;13.91;79.29;99996.84;5029407;28;19970;-86
2023/05/07 02:54:36;;;;;;;;;;;;;;;13.84;79.94;99998.78;5030700;28;20373;-86
2023/05/07 02:57:02;;;;;;;;;;;;;;;13.86;80.36;99996.97;5030677;28;19913;-87
2023/05/07 02:59:28;;;;;;;;;;;;;;;14.01;79.83;99992.19;5029172;28;20010;-86
2023/05/07 03:01:53;;;;;;;;;;;;;;;13.98;79.79;99987.84;5030323;28;19960;-87
2023/05/07 03:04:19;;;;;;;;;;;;;;;14.04;80.31;99997.44;5029379;28;20307;-85
2023/05/07 03:06:44;;;;;;;;;;;;;;;14.06;80.05;100000.94;5030548;28;20002;-86
2023/05/07 03:09:10;;;;;;;;;;;;;;;14.13;80.25;99991.88;5029395;28;20379;-86
2023/05/07 03:11:36;;;;;;;;;;;;;;;14.06;80.66;99991.19;5029035;28;19913;-86
2023/05/07 03:14:01;;;;;;;;;;;;;;;14.19;79.58;99982.91;5029691;28;20353;-85
2023/05/07 03:16:27;;;;;;;;;;;;;;;14.07;78.51;99984.09;5030545;28;20314;-86
2023/05/07 03:18:52;;;;;;;;;;;;;;;13.89;78.70;99983.63;5029498;28;19963;-87
2023/05/07 03:21:18;;;;;;;;;;;;;;;13.63;79.46;99992.19;5029244;28;19917;-89
2023/05/07 03:23:43;;;;;;;;;;;;;;;13.74;78.98;99994.59;5029616;28;19913;-89
2023/05/07 03:26:09;;;;;;;;;;;;;;;13.33;80.76;99986.69;5029553;28;19913;-89
2023/05/07 03:28:34;;;;;;;;;;;;;;;13.28;80.71;99990.28;5028851;28;20409;-88
2023/05/07 03:31:00;;;;;;;;;;;;;;;13.17;82.14;99990.53;5029419;28;19917;-88
2023/05/07 03:33:25;;;;;;;;;;;;;;;13.18;81.17;99985.19;5028523;28;19913;-87
2023/05/07 03:35:50;;;;;;;;;;;;;;;13.06;81.95;99988.09;5029558;28;19920;-91
2023/05/07 03:38:16;;;;;;;;;;;;;;;13.05;82.25;99992.53;5040479;28;19917;-88
2023/05/07 03:40:41;;;;;;;;;;;;;;;13.16;82.34;99991.41;5051733;28;19980;-88
2023/05/07 03:43:06;;;;;;;;;;;;;;;13.23;81.44;100001.00;5052571;28;20003;-86
2023/05/07 03:45:32;;;;;;;;;;;;;;;13.33;81.45;99996.34;5054724;28;19917;-89
2023/05/07 03:47:57;;;;;;;;;;;;;;;13.03;83.17;99990.81;5053692;28;19963;-88
2023/05/07 03:50:22;;;;;;;;;;;;;;;13.24;81.79;99993.00;5053111;28;19912;-91
2023/05/07 03:52:48;;;;;;;;;;;;;;;13.43;82.04;99997.94;5056669;28;19928;-86
2023/05/07 03:55:13;;;;;;;;;;;;;;;13.60;81.73;99997.56;5045811;28;19923;-87
2023/05/07 03:57:38;;;;;;;;;;;;;;;13.64;81.23;100001.00;5034309;28;19927;-87
2023/05/07 04:00:04;;;;;;;;;;;;;;;13.66;81.17;99999.22;5033778;28;20070;-88
2023/05/07 04:02:30;;;;;;;;;;;;;;;13.73;81.90;100000.81;5032441;28;20302;-87
2023/05/07 04:04:55;;;;;;;;;;;;;;;13.69;83.07;99999.16;5034051;28;19970;-87
2023/05/07 04:07:20;;;;;;;;;;;;;;;13.83;84.05;99998.84;5034375;28;19927;-86
2023/05/07 04:09:46;;;;;;;;;;;;;;;14.00;83.69;99994.00;5033749;28;19971;-86
2023/05/07 04:12:11;;;;;;;;;;;;;;;14.06;84.95;99995.63;5033483;28;19913;-86
2023/05/07 04:14:36;;;;;;;;;;;;;;;14.13;85.37;99995.44;5032391;28;19996;-86
2023/05/07 04:17:02;;;;;;;;;;;;;;;14.16;85.50;99989.16;5033639;28;19913;-87
2023/05/07 04:19:28;;;;;;;;;;;;;;;14.28;85.88;99994.16;5033646;28;19928;-87
2023/05/07 04:21:53;;;;;;;;;;;;;;;14.28;86.48;99995.94;5032499;28;19943;-86
2023/05/07 04:24:18;;;;;;;;;;;;;;;14.36;85.82;100001.94;5034120;28;20107;-86
2023/05/07 04:26:44;;;;;;;;;;;;;;;14.54;86.44;99995.28;5031679;28;20714;-86
2023/05/07 04:29:09;;;;;;;;;;;;;;;14.75;85.48;100004.50;5033189;28;19912;-85
2023/05/07 04:31:34;;;;;;;;;;;;;;;14.91;84.34;100004.06;5031723;28;19990;-85
2023/05/07 04:34:00;;;;;;;;;;;;;;;14.71;84.18;100002.81;5032997;28;19917;-85
2023/05/07 04:36:27;;;;;;;;;;;;;;;14.88;83.89;100004.16;5033141;28;19920;-86
2023/05/07 04:38:52;;;;;;;;;;;;;;;15.01;84.18;100010.84;5033199;28;20275;-85
2023/05/07 04:41:18;;;;;;;;;;;;;;;15.12;83.23;100002.56;5033000;28;19917;-84
2023/05/07 04:43:43;;;;;;;;;;;;;;;15.18;83.33;100008.59;5033054;28;19924;-85
2023/05/07 04:46:08;;;;;;;;;;;;;;;15.50;83.16;100009.41;5031613;28;19932;-86
2023/05/07 04:48:34;;;;;;;;;;;;;;;15.57;82.11;100010.97;5032545;28;19949;-87
2023/05/07 04:50:59;;;;;;;;;;;;;;;15.47;84.13;100008.66;5031726;28;19913;-88
2023/05/07 04:53:25;;;;;;;;;;;;;;;15.70;82.83;100010.59;5031604;28;19913;-88
2023/05/07 04:55:55;;;;;;;;;;;;;;;15.89;81.22;100017.09;5031954;28;19952;-86
2023/05/07 04:58:20;;;;;;;;;;;;;;;15.89;80.20;100017.09;5032757;28;20003;-85
2023/05/07 05:00:46;;;;;;;;;;;;;;;15.51;83.42;100020.94;5032609;28;20826;-86
2023/05/07 05:03:11;;;;;;;;;;;;;;;15.41;82.89;100017.66;5032587;28;19917;-85
2023/05/07 05:05:37;;;;;;;;;;;;;;;15.47;83.02;100017.47;5033036;28;19971;-85
2023/05/07 05:08:02;;;;;;;;;;;;;;;15.81;82.01;100027.13;5032633;28;19919;-86
2023/05/07 05:10:27;;;;;;;;;;;;;;;16.06;82.58;100021.88;5032309;28;20404;-87
2023/05/07 05:12:53;;;;;;;;;;;;;;;16.40;81.00;100023.41;5031367;28;19919;-86
2023/05/07 05:15:18;;;;;;;;;;;;;;;16.42;79.82;100023.38;5032025;28;20435;-85
2023/05/07 05:17:44;;;;;;;;;;;;;;;16.53;77.46;100018.56;5032454;28;20370;-86
2023/05/07 05:20:12;;;;;;;;;;;;;;;16.88;77.52;100011.16;5032892;28;20062;-86
2023/05/07 05:22:38;;;;;;;;;;;;;;;16.92;76.08;100014.59;5032463;28;19913;-85
2023/05/07 05:25:03;;;;;;;;;;;;;;;16.74;76.25;100019.59;5032261;28;19913;-86
2023/05/07 05:27:29;;;;;;;;;;;;;;;16.69;77.09;100020.69;5032009;28;19920;-87
2023/05/07 05:29:54;;;;;;;;;;;;;;;17.13;75.43;100023.56;5030805;28;19913;-86
2023/05/07 05:32:20;;;;;;;;;;;;;;;16.94;75.20;100028.72;5030940;28;19921;-87
2023/05/07 05:34:45;;;;;;;;;;;;;;;17.64;72.74;100027.88;5031186;28;19936;-87
2023/05/07 05:37:10;;;;;;;;;;;;;;;17.81;71.72;100039.66;5031914;28;20367;-87
2023/05/07 05:39:36;;;;;;;;;;;;;;;18.09;70.74;100042.16;5032132;28;20292;-86
2023/05/07 05:42:01;;;;;;;;;;;;;;;18.47;69.39;100046.84;5032410;28;20008;-87
2023/05/07 05:44:27;;;;;;;;;;;;;;;18.19;68.46;100047.97;5032119;28;19971;-86
2023/05/07 05:46:54;;;;;;;;;;;;;;;18.71;67.55;100051.13;5031938;28;19913;-87
2023/05/07 05:49:20;;;;;;;;;;;;;;;19.12;66.66;100048.50;5032123;28;20007;-86
2023/05/07 05:51:45;;;;;;;;;;;;;;;19.14;66.44;100043.09;5031526;28;20012;-86
2023/05/07 05:54:11;;;;;;;;;;;;;;;18.95;66.26;100048.34;5031836;28;20359;-85
2023/05/07 05:56:36;;;;;;;;;;;;;;;19.57;66.07;100046.47;5032012;28;20383;-85
2023/05/07 05:59:02;;;;;;;;;;;;;;;19.40;63.41;100054.38;5031215;28;20387;-84
2023/05/07 06:01:27;;;;;;;;;;;;;;;19.03;64.59;100054.25;5031713;28;19913;-84
2023/05/07 06:03:52;;;;;;;;;;;;;;;19.28;63.18;100061.19;5031515;28;19919;-84
2023/05/07 06:06:18;;;;;;;;;;;;;;;19.32;62.31;100052.06;5031269;28;20020;-85
2023/05/07 06:08:43;;;;;;;;;;;;;;;19.45;63.12;100052.38;5031829;28;19913;-85
2023/05/07 06:11:08;;;;;;;;;;;;;;;19.59;63.72;100047.25;5031617;28;19920;-86
2023/05/07 06:13:34;;;;;;;;;;;;;;;19.76;61.66;100059.84;5030440;28;19913;-87
2023/05/07 06:15:59;;;;;;;;;;;;;;;19.64;61.48;100055.91;5030258;28;19920;-86
2023/05/07 06:18:24;;;;;;;;;;;;;;;19.85;61.96;100050.53;5031800;28;19932;-85
2023/05/07 06:20:51;;;;;;;;;;;;;;;20.47;59.40;100055.56;5030054;28;20398;-84
2023/05/07 06:23:16;;;;;;;;;;;;;;;20.69;57.35;100058.91;5030568;28;20387;-90
2023/05/07 06:25:42;;;;;;;;;;;;;;;21.02;57.19;100050.06;5028669;28;19927;-88
2023/05/07 06:28:09;;;;;;;;;;;;;;;20.53;59.04;100056.13;5030420;28;19920;-89
2023/05/07 06:30:34;;;;;;;;;;;;;;;20.71;58.01;100056.16;5029680;28;19913;-89
2023/05/07 06:33:00;;;;;;;;;;;;;;;20.94;56.67;100046.91;5030726;28;20047;-90
2023/05/07 06:35:25;;;;;;;;;;;;;;;21.56;55.65;100052.56;5030480;28;19913;-90
2023/05/07 06:37:50;;;;;;;;;;;;;;;22.03;54.26;100034.75;5030322;28;19928;-90
2023/05/07 06:40:16;;;;;;;;;;;;;;;22.35;53.60;100037.41;5031349;28;19913;-91
2023/05/07 06:42:42;;;;;;;;;;;;;;;22.68;52.03;100041.75;5029462;28;19919;-91
2023/05/07 06:45:08;;;;;;;;;;;;;;;23.26;50.34;100039.19;5030452;28;19917;-90
2023/05/07 06:47:33;;;;;;;;;;;;;;;22.93;51.68;100041.13;5030547;28;19916;-89
2023/05/07 06:49:58;;;;;;;;;;;;;;;23.46;50.23;100038.78;5029625;28;20287;-88
2023/05/07 06:52:24;;;;;;;;;;;;;;;22.77;51.99;100038.53;5030322;28;19917;-88
2023/05/07 06:54:49;;;;;;;;;;;;;;;22.28;51.91;100036.88;5029732;28;19999;-87
2023/05/07 06:57:14;;;;;;;;;;;;;;;21.34;53.60;100033.19;5030555;28;19917;-87
2023/05/07 06:59:40;;;;;;;;;;;;;;;21.44;56.21;100032.63;5030246;28;19913;-87
2023/05/07 07:02:05;;;;;;;;;;;;;;;21.57;54.04;100030.16;5029378;28;19970;-87
2023/05/07 07:04:31;;;;;;;;;;;;;;;22.25;54.56;100039.75;5030552;28;19958;-88
2023/05/07 07:06:56;;;;;;;;;;;;;;;22.16;53.75;100040.28;5030868;28;19917;-86
2023/05/07 07:09:22;;;;;;;;;;;;;;;22.75;52.73;100042.25;5028173;28;19913;-87
2023/05/07 07:11:47;;;;;;;;;;;;;;;22.92;53.52;100042.09;5030305;28;19920;-86
2023/05/07 07:14:12;;;;;;;;;;;;;;;22.88;52.73;100041.41;5029784;28;19917;-86
2023/05/07 07:16:38;;;;;;;;;;;;;;;22.28;52.71;100041.41;5030081;28;19920;-86
2023/05/07 07:19:03;;;;;;;;;;;;;;;22.74;53.65;100045.88;5028335;28;19909;-87
2023/05/07 07:21:29;;;;;;;;;;;;;;;22.60;50.64;100042.22;5029929;28;19959;-85
2023/05/07 07:23:55;;;;;;;;;;;;;;;23.09;48.72;100038.38;5030271;28;19923;-86
2023/05/07 07:26:20;;;;;;;;;;;;;;;23.43;50.39;100036.28;5034172;28;20314;-86
2023/05/07 07:28:46;;;;;;;;;;;;;;;24.12;47.50;100049.88;5033936;28;19913;-86
2023/05/07 07:31:12;;;;;;;;;;;;;;;24.18;48.75;100046.75;5033739;28;19917;-86
2023/05/07 07:33:37;;;;;;;;;;;;;;;24.08;47.36;100042.94;5034233;28;20395;-87
2023/05/07 07:36:02;;;;;;;;;;;;;;;24.24;48.79;100049.06;5034211;28;20491;-85
2023/05/07 07:38:28;;;;;;;;;;;;;;;24.26;46.69;100052.50;5034048;28;19920;-87
2023/05/07 07:40:53;;;;;;;;;;;;;;;24.48;45.27;100053.75;5034467;28;19913;-86
2023/05/07 07:43:18;;;;;;;;;;;;;;;24.75;44.99;100042.13;5033917;28;20303;-86
2023/05/07 07:45:45;;;;;;;;;;;;;;;24.65;48.61;100044.56;5033946;28;20315;-86
2023/05/07 07:48:11;;;;;;;;;;;;;;;25.35;44.96;100044.22;5034047;28;20002;-86
2023/05/07 07:50:36;;;;;;;;;;;;;;;25.32;43.48;100047.13;5033669;28;20375;-87
2023/05/07 07:53:01;;;;;;;;;;;;;;;25.33;41.65;100043.47;5033506;28;19920;-87
2023/05/07 07:55:27;;;;;;;;;;;;;;;25.62;41.79;100054.00;5034317;28;19920;-87
2023/05/07 07:57:52;;;;;;;;;;;;;;;25.68;42.13;100045.44;5031787;28;19913;-86
2023/05/07 08:00:17;;;;;;;;;;;;;;;25.29;43.87;100044.66;5033093;28;20505;-86
2023/05/07 08:02:43;;;;;;;;;;;;;;;25.55;42.16;100048.19;5033417;28;19913;-85
2023/05/07 08:05:08;;;;;;;;;;;;;;;25.43;43.51;100049.06;5032426;28;19917;-88
2023/05/07 08:07:34;;;;;;;;;;;;;;;25.87;42.23;100045.00;5031263;28;19913;-87
2023/05/07 08:09:59;;;;;;;;;;;;;;;25.83;41.29;100048.03;5031884;28;20004;-85
2023/05/07 08:12:24;;;;;;;;;;;;;;;25.84;40.79;100047.91;5033935;28;19933;-85
2023/05/07 08:14:50;;;;;;;;;;;;;;;24.99;40.32;100047.63;5033662;28;19917;-85
2023/05/07 08:17:16;;;;;;;;;;;;;;;24.87;42.30;100040.38;5033445;28;19913;-85
2023/05/07 08:19:42;;;;;;;;;;;;;;;25.43;41.20;100029.31;5032591;28;19983;-86
2023/05/07 08:22:07;;;;;;;;;;;;;;;25.47;39.17;100030.81;5032906;28;19913;-89
2023/05/07 08:24:33;;;;;;;;;;;;;;;25.62;39.95;100024.28;5032389;28;19983;-86
2023/05/07 08:26:58;;;;;;;;;;;;;;;25.73;41.41;100023.50;5032487;28;19974;-87
2023/05/07 08:29:23;;;;;;;;;;;;;;;26.02;41.98;100024.09;5032169;28;19917;-85
2023/05/07 08:31:49;;;;;;;;;;;;;;;26.38;39.60;100022.28;5032886;28;19917;-86
2023/05/07 08:34:14;;;;;;;;;;;;;;;26.41;39.55;100026.63;5032562;28;19920;-85
2023/05/07 08:36:41;;;;;;;;;;;;;;;26.21;37.97;100023.59;5031140;28;19920;-86
2023/05/07 08:39:06;;;;;;;;;;;;;;;26.17;36.83;100011.28;5032968;28;20004;-85
2023/05/07 08:41:32;;;;;;;;;;;;;;;25.97;39.26;100022.69;5031842;28;19977;-85
2023/05/07 08:43:59;;;;;;;;;;;;;;;25.61;37.84;100019.88;5032248;28;19917;-85
2023/05/07 08:46:25;;;;;;;;;;;;;;;25.70;38.86;100015.63;5031940;28;19913;-85
2023/05/07 08:48:51;;;;;;;;;;;;;;;25.96;38.42;100012.84;5032136;28;19970;-86
2023/05/07 08:51:18;;;;;;;;;;;;;;;25.85;37.24;100010.94;5031884;28;19913;-86
2023/05/07 08:53:43;;;;;;;;;;;;;;;25.55;37.24;100015.78;5031854;28;20020;-85
2023/05/07 08:56:09;;;;;;;;;;;;;;;25.90;35.55;100009.63;5030567;28;19916;-86
2023/05/07 08:58:34;;;;;;;;;;;;;;;25.24;37.88;100008.13;5032026;28;19956;-85
2023/05/07 09:01:06;;;;;;;;;;;;;;;25.01;37.67;100007.94;5031846;28;19972;-86
2023/05/07 09:03:32;;;;;;;;;;;;;;;25.22;36.97;100010.94;5031851;28;19912;-86
2023/05/07 09:05:57;;;;;;;;;;;;;;;25.30;36.22;100007.72;5031975;28;19984;-86
2023/05/07 09:08:24;;;;;;;;;;;;;;;25.16;37.06;100001.44;5031253;28;19971;-85
2023/05/07 09:10:51;;;;;;;;;;;;;;;25.27;37.26;99997.97;5032052;28;19913;-87
2023/05/07 09:13:18;;;;;;;;;;;;;;;25.12;37.48;100002.63;5031621;28;20427;-85
2023/05/07 09:15:43;;;;;;;;;;;;;;;25.41;36.16;100004.25;5031460;28;19913;-84
2023/05/07 09:18:08;;;;;;;;;;;;;;;25.17;37.21;99997.75;5031523;28;20019;-86
2023/05/07 09:20:33;;;;;;;;;;;;;;;25.61;34.24;99990.19;5031678;28;19913;-85
2023/05/07 09:22:59;;;;;;;;;;;;;;;25.70;35.04;99994.00;5029541;28;19913;-85
2023/05/07 09:25:29;;;;;;;;;;;;;;;25.72;35.90;99987.53;5031412;28;19920;-84
2023/05/07 09:27:54;;;;;;;;;;;;;;;25.87;37.18;99985.56;5031413;28;19913;-84
2023/05/07 09:30:20;;;;;;;;;;;;;;;25.96;35.96;99983.13;5031352;28;19913;-88
2023/05/07 09:32:45;;;;;;;;;;;;;;;25.45;36.51;99986.84;5031451;28;19916;-85
2023/05/07 09:35:17;;;;;;;;;;;;;;;25.19;37.13;99986.84;5030891;28;20339;-85
2023/05/07 09:37:45;;;;;;;;;;;;;;;25.55;38.09;99979.81;5030931;28;20012;-91
2023/05/07 09:40:21;;;;;;;;;;;;;;;25.65;37.88;99977.28;5030912;28;19919;-85
2023/05/07 09:42:47;;;;;;;;;;;;;;;25.98;38.52;99973.09;5031317;28;19913;-85
2023/05/07 09:45:12;;;;;;;;;;;;;;;26.27;34.81;99970.88;5031026;28;19917;-85
2023/05/07 09:47:38;;;;;;;;;;;;;;;25.86;36.27;99964.91;5029936;28;19913;-85
2023/05/07 09:50:05;;;;;;;;;;;;;;;25.96;35.94;99962.34;5030754;28;19920;-85
2023/05/07 09:52:33;;;;;;;;;;;;;;;26.17;33.74;99964.47;5030881;28;19932;-84
2023/05/07 09:54:59;;;;;;;;;;;;;;;26.15;33.15;99967.28;5031522;28;19924;-87
2023/05/07 09:57:25;;;;;;;;;;;;;;;25.90;32.23;99970.94;5030862;28;19916;-85
2023/05/07 09:59:52;;;;;;;;;;;;;;;25.79;31.77;99963.63;5030644;28;19916;-87
2023/05/07 10:02:18;;;;;;;;;;;;;;;25.50;32.46;99963.94;5031203;28;19919;-85
2023/05/07 10:04:44;;;;;;;;;;;;;;;25.41;31.56;99958.34;5030427;28;20389;-86
2023/05/07 10:07:09;;;;;;;;;;;;;;;25.30;32.13;99954.59;5030408;28;19917;-85
2023/05/07 10:09:38;;;;;;;;;;;;;;;26.19;32.12;99938.19;5030984;28;19979;-88
2023/05/07 10:12:04;;;;;;;;;;;;;;;25.65;33.95;99948.44;5030438;28;19956;-89
2023/05/07 10:14:29;;;;;;;;;;;;;;;24.74;34.02;99941.44;5030451;28;19920;-87
2023/05/07 10:16:56;;;;;;;;;;;;;;;24.77;35.02;99949.31;5030410;28;19913;-86
2023/05/07 10:19:21;;;;;;;;;;;;;;;25.13;34.94;99950.38;5029048;28;19909;-87
2023/05/07 10:21:59;;;;;;;;;;;;;;;25.35;35.87;99940.78;5030117;28;19913;-87
2023/05/07 10:24:36;;;;;;;;;;;;;;;25.10;35.71;99938.94;5030297;28;20009;-85
2023/05/07 10:27:03;;;;;;;;;;;;;;;25.16;34.40;99936.69;5030302;28;19913;-85
2023/05/07 10:29:32;;;;;;;;;;;;;;;25.09;34.23;99926.44;5030491;28;19917;-87
2023/05/07 10:32:24;;;;;;;;;;;;;;;24.57;36.04;99921.03;5040508;28;19917;-86
2023/05/07 10:34:53;;;;;;;;;;;;;;;25.01;35.13;99918.88;5050366;28;19913;-86
2023/05/07 10:37:18;;;;;;;;;;;;;;;24.67;33.85;99919.44;5050273;28;19920;-84
2023/05/07 10:39:44;;;;;;;;;;;;;;;24.62;33.73;99923.41;5050022;28;19912;-89
2023/05/07 10:42:10;;;;;;;;;;;;;;;24.79;36.03;99920.41;5048716;28;19912;-86
2023/05/07 10:44:37;;;;;;;;;;;;;;;25.35;32.51;99909.22;5049984;28;19912;-85
2023/05/07 10:47:12;;;;;;;;;;;;;;;25.17;32.93;99908.69;5049907;28;20007;-85
2023/05/07 10:49:44;;;;;;;;;;;;;;;24.72;33.51;99902.06;5049855;28;19912;-86
2023/05/07 10:52:18;;;;;;;;;;;;;;;24.53;35.52;99903.34;5049642;28;20045;-87
2023/05/07 10:54:44;;;;;;;;;;;;;;;24.26;34.14;99903.41;5048366;28;19913;-88
2023/05/07 10:57:30;;;;;;;;;;;;;;;24.41;34.75;99901.50;5049826;28;19998;-87
2023/05/07 10:59:55;;;;;;;;;;;;;;;24.87;34.03;99898.28;5041691;28;20397;-89
2023/05/07 11:02:20;;;;;;;;;;;;;;;25.18;34.08;99898.78;5049791;28;20016;-87
2023/05/07 11:05:05;;;;;;;;;;;;;;;25.05;34.44;99906.03;5049795;28;19948;-83
2023/05/07 11:07:31;;;;;;;;;;;;;;;24.64;35.12;99898.06;5049281;28;19913;-87
2023/05/07 11:10:04;;;;;;;;;;;;;;;24.56;34.98;99891.44;5050522;28;20057;-86
2023/05/07 11:12:35;;;;;;;;;;;;;;;24.46;35.39;99891.25;5049533;28;19917;-86
2023/05/07 11:15:01;;;;;;;;;;;;;;;24.73;34.31;99883.09;5050035;28;20010;-86
2023/05/07 11:17:27;;;;;;;;;;;;;;;24.77;35.15;99886.41;5049478;28;20452;-88
2023/05/07 11:19:53;;;;;;;;;;;;;;;24.56;35.84;99878.84;5050028;28;20366;-87
2023/05/07 11:22:30;;;;;;;;;;;;;;;24.60;35.92;99882.22;5049170;28;19985;-87
2023/05/07 11:24:56;;;;;;;;;;;;;;;24.56;36.22;99878.84;5049851;28;19920;-86
2023/05/07 11:27:25;;;;;;;;;;;;;;;24.35;36.84;99877.66;5048941;28;20243;-85
2023/05/07 11:29:51;;;;;;;;;;;;;;;24.26;37.87;99871.06;5048481;28;19913;-89
2023/05/07 11:32:22;;;;;;;;;;;;;;;24.77;36.13;99870.25;5049777;28;19924;-90
2023/05/07 11:34:51;;;;;;;;;;;;;;;24.52;36.65;99861.16;5048625;28;19912;-88
2023/05/07 11:37:17;;;;;;;;;;;;;;;24.32;36.05;99873.34;5047846;28;19917;-87
2023/05/07 11:39:42;;;;;;;;;;;;;;;24.38;36.95;99867.53;5048909;28;19982;-88
2023/05/07 11:42:24;;;;;;;;;;;;;;;23.94;37.37;99869.63;5047384;28;20037;-87
2023/05/07 11:44:50;;;;;;;;;;;;;;;23.94;36.29;99876.81;5048035;28;20098;-88
2023/05/07 11:47:18;;;;;;;;;;;;;;;24.46;35.64;99867.84;5047327;28;20015;-88
2023/05/07 11:49:47;;;;;;;;;;;;;;;24.30;35.24;99872.59;5049367;28;19913;-91
2023/05/07 11:52:13;;;;;;;;;;;;;;;24.65;36.06;99875.53;5048930;28;19912;-86
2023/05/07 11:54:38;;;;;;;;;;;;;;;24.75;36.35;99870.34;5047861;28;19916;-86
2023/05/07 11:57:07;;;;;;;;;;;;;;;24.55;35.25;99873.56;5049231;28;20374;-89
2023/05/07 11:59:40;;;;;;;;;;;;;;;24.50;35.64;99863.13;5048988;28;19909;-86
2023/05/07 12:02:05;;;;;;;;;;;;;;;24.57;35.02;99860.84;5047828;28;19923;-87
2023/05/07 12:04:31;;;;;;;;;;;;;;;24.63;35.33;99860.44;5049158;28;20789;-86
2023/05/07 12:06:56;;;;;;;;;;;;;;;24.68;36.18;99852.88;5048709;28;19970;-86
2023/05/07 12:09:21;;;;;;;;;;;;;;;24.70;34.92;99859.03;5049074;28;20393;-85
2023/05/07 12:11:47;;;;;;;;;;;;;;;24.91;35.00;99851.22;5051090;28;19909;-85
2023/05/07 12:14:12;;;;;;;;;;;;;;;25.25;33.61;99864.09;5050963;28;20352;-85
2023/05/07 12:16:39;;;;;;;;;;;;;;;24.91;34.15;99853.06;5051994;28;19920;-87
2023/05/07 12:19:06;;;;;;;;;;;;;;;24.91;36.05;99853.06;5052733;28;19919;-83
2023/05/07 12:21:31;;;;;;;;;;;;;;;25.04;34.85;99843.13;5052443;28;20011;-85
2023/05/07 12:23:57;;;;;;;;;;;;;;;24.80;34.31;99848.44;5052568;28;20000;-84
2023/05/07 12:26:22;;;;;;;;;;;;;;;24.90;34.69;99848.63;5052479;28;19913;-84
2023/05/07 12:28:47;;;;;;;;;;;;;;;24.85;34.40;99840.88;5052717;28;19974;-84
2023/05/07 12:31:14;;;;;;;;;;;;;;;24.87;34.33;99838.06;5052493;28;19966;-85
2023/05/07 12:33:39;;;;;;;;;;;;;;;24.98;35.52;99828.22;5052844;28;19913;-84
2023/05/07 12:36:07;;;;;;;;;;;;;;;24.74;34.37;99830.84;5052583;28;19923;-85